createdAt,value
2022-11-25T00:00:39.671Z,8.32
2022-11-25T00:05:41.373Z,7.63
2022-11-25T00:10:42.920Z,7.75
2022-11-25T00:15:44.582Z,6.80
2022-11-25T00:20:46.118Z,7.13
2022-11-25T00:25:47.808Z,7.25
2022-11-25T00:30:49.397Z,7.25
2022-11-25T00:35:51.011Z,6.32
2022-11-25T00:41:12.969Z,6.25
2022-11-25T00:46:14.585Z,6.63
2022-11-25T00:51:16.416Z,6.30
2022-11-25T00:56:18.089Z,6.80
2022-11-25T01:01:20.099Z,8.55
2022-11-25T01:06:26.499Z,8.57
2022-11-25T01:11:28.826Z,7.68
2022-11-25T01:16:30.716Z,6.72
2022-11-25T01:21:34.160Z,7.30
2022-11-25T01:26:36.410Z,6.38
2022-11-25T01:31:38.177Z,7.35
2022-11-25T01:36:40.491Z,6.78
2022-11-25T01:41:42.099Z,5.43
2022-11-25T01:46:48.034Z,4.55
2022-11-25T01:52:26.758Z,4.32
2022-11-25T01:57:37.503Z,4.65
2022-11-25T02:02:39.949Z,9.82
2022-11-25T02:07:44.376Z,5.57
2022-11-25T02:12:47.602Z,4.80
2022-11-25T02:17:49.328Z,3.75
2022-11-25T02:22:54.008Z,3.17
2022-11-25T02:28:03.313Z,2.53
2022-11-25T02:33:05.882Z,2.92
2022-11-25T02:38:09.684Z,2.05
2022-11-25T02:43:12.663Z,2.08
2022-11-25T02:48:14.463Z,1.55
2022-11-25T02:53:16.511Z,1.42
2022-11-25T02:58:19.045Z,1.33
2022-11-25T03:03:20.690Z,3.90
2022-11-25T03:08:22.270Z,1.77
2022-11-25T03:13:24.042Z,3.45
2022-11-25T03:18:25.725Z,3.15
2022-11-25T03:23:27.489Z,2.47
2022-11-25T03:28:29.043Z,2.20
2022-11-25T03:33:31.958Z,1.80
2022-11-25T03:38:33.693Z,2.50
2022-11-25T03:43:35.804Z,2.38
2022-11-25T03:48:38.311Z,2.85
2022-11-25T03:53:40.343Z,3.33
2022-11-25T03:58:44.112Z,3.63
2022-11-25T04:03:47.400Z,3.45
2022-11-25T04:08:49.007Z,3.45
2022-11-25T04:13:50.908Z,3.95
2022-11-25T04:18:52.658Z,3.42
2022-11-25T04:23:54.343Z,3.88
2022-11-25T04:28:56.392Z,3.95
2022-11-25T04:33:59.356Z,4.30
2022-11-25T04:39:01.102Z,3.97
2022-11-25T04:44:02.815Z,3.45
2022-11-25T04:49:04.741Z,2.70
2022-11-25T04:54:07.100Z,2.67
2022-11-25T04:59:29.165Z,2.90
2022-11-25T05:04:31.115Z,2.20
2022-11-25T05:09:32.827Z,2.50
2022-11-25T05:14:55.263Z,2.72
2022-11-25T05:19:58.822Z,2.67
2022-11-25T05:25:00.676Z,2.80
2022-11-25T05:30:03.175Z,3.22
2022-11-25T05:35:05.212Z,2.60
2022-11-25T05:40:07.665Z,2.78
2022-11-25T05:45:31.676Z,3.28
2022-11-25T05:50:33.481Z,3.15
2022-11-25T05:55:39.283Z,3.10
2022-11-25T06:00:48.139Z,4.50
2022-11-25T06:05:51.016Z,3.88
2022-11-25T06:10:52.936Z,5.55
2022-11-25T06:15:54.595Z,5.30
2022-11-25T06:20:57.793Z,5.40
2022-11-25T06:26:13.809Z,4.32
2022-11-25T06:31:19.488Z,4.15
2022-11-25T06:36:31.367Z,3.90
2022-11-25T06:41:32.929Z,6.75
2022-11-25T06:46:34.729Z,6.63
2022-11-25T06:51:36.328Z,5.25
2022-11-25T06:56:39.362Z,5.07
2022-11-25T07:01:40.940Z,5.35
2022-11-25T07:06:42.587Z,4.97
2022-11-25T07:11:44.148Z,4.13
2022-11-25T07:16:46.580Z,4.07
2022-11-25T07:21:48.204Z,3.92
2022-11-25T07:26:49.766Z,3.85
2022-11-25T07:31:51.320Z,3.75
2022-11-25T07:36:53.005Z,2.97
2022-11-25T07:41:54.815Z,3.17
2022-11-25T07:46:57.569Z,3.10
2022-11-25T07:52:04.427Z,3.15
2022-11-25T07:57:06.012Z,2.78
2022-11-25T08:02:09.374Z,3.55
2022-11-25T08:07:11.413Z,3.65
2022-11-25T08:12:13.004Z,5.07
2022-11-25T08:17:16.955Z,3.70
2022-11-25T08:22:18.564Z,2.47
2022-11-25T08:27:20.114Z,3.47
2022-11-25T08:32:21.676Z,3.33
2022-11-25T08:37:23.250Z,3.30
2022-11-25T08:42:24.912Z,4.03
2022-11-25T08:47:26.645Z,3.20
2022-11-25T08:52:29.310Z,3.70
2022-11-25T08:57:30.991Z,2.45
2022-11-25T09:02:32.995Z,2.50
2022-11-25T09:07:34.636Z,3.17
2022-11-25T09:12:36.210Z,2.55
2022-11-25T09:17:37.792Z,3.00
2022-11-25T09:22:39.353Z,2.60
2022-11-25T09:27:40.898Z,3.05
2022-11-25T09:32:43.140Z,5.47
2022-11-25T09:37:45.068Z,6.57
2022-11-25T09:43:31.727Z,6.65
2022-11-25T09:48:39.468Z,5.20
2022-11-25T09:54:01.681Z,4.93
2022-11-25T09:59:18.428Z,4.28
2022-11-25T10:04:46.983Z,4.30
2022-11-25T10:09:56.627Z,3.30
2022-11-25T10:15:04.796Z,3.85
2022-11-25T10:20:33.376Z,5.60
2022-11-25T10:25:42.839Z,7.18
2022-11-25T10:31:21.691Z,5.95
2022-11-25T10:36:27.417Z,4.88
2022-11-25T10:41:35.266Z,4.75
2022-11-25T10:47:12.975Z,5.05
2022-11-25T10:52:14.223Z,5.18
2022-11-25T10:57:20.790Z,5.30
2022-11-25T11:02:25.128Z,4.97
2022-11-25T11:07:29.914Z,4.65
2022-11-25T11:12:31.671Z,5.50
2022-11-25T11:17:37.424Z,4.88
2022-11-25T11:22:50.062Z,5.03
2022-11-25T11:27:56.816Z,5.15
2022-11-25T11:33:00.297Z,5.68
2022-11-25T11:38:26.969Z,3.95
2022-11-25T11:43:34.429Z,3.20
2022-11-25T11:48:50.056Z,3.75
2022-11-25T11:54:08.188Z,3.20
2022-11-25T11:59:46.215Z,3.05
2022-11-25T12:05:13.960Z,3.60
2022-11-25T12:10:15.592Z,3.78
2022-11-25T12:16:11.251Z,3.88
2022-11-25T12:22:07.374Z,3.50
2022-11-25T12:27:18.404Z,2.80
2022-11-25T12:32:21.543Z,3.25
2022-11-25T12:37:45.644Z,3.47
2022-11-25T12:42:49.464Z,3.00
2022-11-25T12:47:52.152Z,2.95
2022-11-25T12:53:12.520Z,3.80
2022-11-25T12:58:37.045Z,3.03
2022-11-25T13:04:00.806Z,3.28
2022-11-25T13:09:32.990Z,3.80
2022-11-25T13:14:59.999Z,3.17
2022-11-25T13:20:32.960Z,2.85
2022-11-25T13:25:37.265Z,3.15
2022-11-25T13:30:39.543Z,3.65
2022-11-25T13:35:44.155Z,2.90
2022-11-25T13:41:04.290Z,3.05
2022-11-25T13:46:06.080Z,2.75
2022-11-25T13:51:19.070Z,3.70
2022-11-25T13:56:20.589Z,2.88
2022-11-25T14:01:29.972Z,2.53
2022-11-25T14:07:00.433Z,2.42
2022-11-25T14:12:07.878Z,2.42
2022-11-25T14:17:59.430Z,2.45
2022-11-25T14:23:26.507Z,2.00
2022-11-25T14:28:54.833Z,2.30
2022-11-25T14:34:15.459Z,3.22
2022-11-25T14:39:33.914Z,2.65
2022-11-25T14:44:44.756Z,2.60
2022-11-25T14:50:18.814Z,2.13
2022-11-25T14:55:31.978Z,2.28
2022-11-25T15:00:33.824Z,3.08
2022-11-25T15:05:38.220Z,2.47
2022-11-25T15:10:53.369Z,1.67
2022-11-25T15:15:56.268Z,2.67
2022-11-25T15:20:59.748Z,2.30
2022-11-25T15:26:02.810Z,2.30
2022-11-25T15:31:16.446Z,3.08
2022-11-25T15:36:18.216Z,2.50
2022-11-25T15:41:20.150Z,2.10
2022-11-25T15:46:23.669Z,2.72
2022-11-25T15:51:41.635Z,2.20
2022-11-25T15:56:47.562Z,2.83
2022-11-25T16:01:49.179Z,2.45
2022-11-25T16:07:00.137Z,2.50
2022-11-25T16:12:06.670Z,3.50
2022-11-25T16:17:12.552Z,2.60
2022-11-25T16:22:17.547Z,3.70
2022-11-25T16:27:28.431Z,3.22
2022-11-25T16:32:33.987Z,4.32
2022-11-25T16:37:38.677Z,8.30
2022-11-25T16:42:40.688Z,6.28
2022-11-25T16:47:42.346Z,5.80
2022-11-25T16:52:44.395Z,5.50
2022-11-25T16:57:46.309Z,5.97
2022-11-25T17:02:47.978Z,5.78
2022-11-25T17:07:53.428Z,7.13
2022-11-25T17:12:56.092Z,6.25
2022-11-25T17:17:58.954Z,5.40
2022-11-25T17:23:00.640Z,6.30
2022-11-25T17:28:02.811Z,5.43
2022-11-25T17:33:14.863Z,4.60
2022-11-25T17:38:26.771Z,4.78
2022-11-25T17:43:34.358Z,5.22
2022-11-25T17:48:36.460Z,4.75
2022-11-25T17:53:39.938Z,4.28
2022-11-25T17:58:41.826Z,3.83
2022-11-25T18:03:43.553Z,4.78
2022-11-25T18:08:45.254Z,4.72
2022-11-25T18:13:51.602Z,4.47
2022-11-25T18:18:53.407Z,4.35
2022-11-25T18:23:55.297Z,4.53
2022-11-25T18:28:57.295Z,3.90
2022-11-25T18:33:59.057Z,3.80
2022-11-25T18:39:00.745Z,5.00
2022-11-25T18:44:04.421Z,5.50
2022-11-25T18:49:13.729Z,5.85
2022-11-25T18:54:16.835Z,5.05
2022-11-25T18:59:27.259Z,5.55
2022-11-25T19:04:29.107Z,5.63
2022-11-25T19:09:31.527Z,5.90
2022-11-25T19:14:39.544Z,5.78
2022-11-25T19:19:44.786Z,6.35
2022-11-25T19:24:51.407Z,7.53
2022-11-25T19:29:53.205Z,12.63
2022-11-25T19:35:03.021Z,7.05
2022-11-25T19:45:13.588Z,7.07
2022-11-25T19:50:29.007Z,5.93
2022-11-25T19:55:32.392Z,5.85
2022-11-25T20:00:43.614Z,6.35
2022-11-25T20:05:46.202Z,6.15
2022-11-25T20:10:48.770Z,7.70
2022-11-25T20:15:51.146Z,8.73
2022-11-25T20:21:05.489Z,8.70
2022-11-25T20:26:07.455Z,6.88
2022-11-25T20:31:12.018Z,6.43
2022-11-25T20:36:17.285Z,6.97
2022-11-25T20:41:24.366Z,6.97
2022-11-25T20:46:30.108Z,5.57
2022-11-25T20:51:32.013Z,6.70
2022-11-25T20:56:34.461Z,5.32
2022-11-25T21:01:36.290Z,5.57
2022-11-25T21:06:41.193Z,5.80
2022-11-25T21:11:43.381Z,4.35
2022-11-25T21:16:46.505Z,5.50
2022-11-25T21:21:50.839Z,4.10
2022-11-25T21:26:53.081Z,4.10
2022-11-25T21:31:54.968Z,4.55
2022-11-25T21:36:56.896Z,4.88
2022-11-25T21:42:03.678Z,4.72
2022-11-25T21:47:14.016Z,4.25
2022-11-25T21:52:17.228Z,4.80
2022-11-25T21:57:31.369Z,4.68
2022-11-25T22:02:34.531Z,4.63
2022-11-25T22:07:36.345Z,5.45
2022-11-25T22:12:41.562Z,4.57
2022-11-25T22:17:44.727Z,4.32
2022-11-25T22:22:46.664Z,4.60
2022-11-25T22:27:49.009Z,4.47
2022-11-25T22:33:01.263Z,4.80
2022-11-25T22:38:02.939Z,4.22
2022-11-25T22:43:04.876Z,4.63
2022-11-25T22:48:06.898Z,4.75
2022-11-25T22:53:17.617Z,4.50
2022-11-25T22:58:20.466Z,4.35
2022-11-25T23:03:29.671Z,4.35
2022-11-25T23:08:32.037Z,4.75
2022-11-25T23:13:34.704Z,4.43
2022-11-25T23:18:46.328Z,4.07
2022-11-25T23:23:50.858Z,4.88
2022-11-25T23:28:52.481Z,4.85
2022-11-25T23:33:54.191Z,4.10
2022-11-25T23:39:03.672Z,4.50
2022-11-25T23:49:26.606Z,4.10
2022-11-25T23:54:40.683Z,4.40
2022-11-25T23:59:43.540Z,3.95
